sensor_id;sensor_type;location;lat;lon;timestamp;temperature;humidity
45104;DHT22;30865;51.288;4.572;2023-04-25T00:00:21;9.90;99.90
45104;DHT22;30865;51.288;4.572;2023-04-25T00:02:47;9.90;99.90
45104;DHT22;30865;51.288;4.572;2023-04-25T00:05:12;9.80;99.90
45104;DHT22;30865;51.288;4.572;2023-04-25T00:07:40;9.70;99.90
45104;DHT22;30865;51.288;4.572;2023-04-25T00:10:08;9.70;99.90
45104;DHT22;30865;51.288;4.572;2023-04-25T00:12:34;9.70;99.90
45104;DHT22;30865;51.288;4.572;2023-04-25T00:15:01;9.70;99.90
45104;DHT22;30865;51.288;4.572;2023-04-25T00:17:26;9.70;99.90
45104;DHT22;30865;51.288;4.572;2023-04-25T00:19:52;9.70;99.90
45104;DHT22;30865;51.288;4.572;2023-04-25T00:22:17;9.70;99.90
45104;DHT22;30865;51.288;4.572;2023-04-25T00:24:43;9.60;99.90
45104;DHT22;30865;51.288;4.572;2023-04-25T00:27:09;9.50;99.90
45104;DHT22;30865;51.288;4.572;2023-04-25T00:29:34;9.50;99.90
45104;DHT22;30865;51.288;4.572;2023-04-25T00:32:00;9.50;99.90
45104;DHT22;30865;51.288;4.572;2023-04-25T00:34:26;9.70;99.90
45104;DHT22;30865;51.288;4.572;2023-04-25T00:36:51;9.60;99.90
45104;DHT22;30865;51.288;4.572;2023-04-25T00:39:17;9.70;99.90
45104;DHT22;30865;51.288;4.572;2023-04-25T00:41:43;9.70;99.90
45104;DHT22;30865;51.288;4.572;2023-04-25T00:44:09;9.70;99.90
45104;DHT22;30865;51.288;4.572;2023-04-25T00:46:36;9.70;99.90
45104;DHT22;30865;51.288;4.572;2023-04-25T00:49:02;9.60;99.90
45104;DHT22;30865;51.288;4.572;2023-04-25T00:51:28;9.50;99.90
45104;DHT22;30865;51.288;4.572;2023-04-25T00:53:54;9.40;99.90
45104;DHT22;30865;51.288;4.572;2023-04-25T00:56:20;9.40;99.90
45104;DHT22;30865;51.288;4.572;2023-04-25T00:58:47;9.40;99.90
45104;DHT22;30865;51.288;4.572;2023-04-25T01:01:13;9.40;99.90
45104;DHT22;30865;51.288;4.572;2023-04-25T01:03:39;9.40;99.90
45104;DHT22;30865;51.288;4.572;2023-04-25T01:06:12;9.40;99.90
45104;DHT22;30865;51.288;4.572;2023-04-25T01:08:39;9.50;99.90
45104;DHT22;30865;51.288;4.572;2023-04-25T01:11:05;9.50;99.90
45104;DHT22;30865;51.288;4.572;2023-04-25T01:13:31;9.50;99.90
45104;DHT22;30865;51.288;4.572;2023-04-25T01:15:58;9.50;99.90
45104;DHT22;30865;51.288;4.572;2023-04-25T01:18:24;9.50;99.90
45104;DHT22;30865;51.288;4.572;2023-04-25T01:20:51;9.50;99.90
45104;DHT22;30865;51.288;4.572;2023-04-25T01:23:19;9.50;99.90
45104;DHT22;30865;51.288;4.572;2023-04-25T01:25:45;9.50;99.90
45104;DHT22;30865;51.288;4.572;2023-04-25T01:28:12;9.50;99.90
45104;DHT22;30865;51.288;4.572;2023-04-25T01:30:38;9.50;99.90
45104;DHT22;30865;51.288;4.572;2023-04-25T01:33:04;9.60;99.90
45104;DHT22;30865;51.288;4.572;2023-04-25T01:35:31;9.60;99.90
45104;DHT22;30865;51.288;4.572;2023-04-25T01:37:58;9.60;99.90
45104;DHT22;30865;51.288;4.572;2023-04-25T01:40:24;9.60;99.90
45104;DHT22;30865;51.288;4.572;2023-04-25T01:42:50;9.60;99.90
45104;DHT22;30865;51.288;4.572;2023-04-25T01:45:16;9.60;99.90
45104;DHT22;30865;51.288;4.572;2023-04-25T01:47:42;9.60;99.90
45104;DHT22;30865;51.288;4.572;2023-04-25T01:50:09;9.60;99.90
45104;DHT22;30865;51.288;4.572;2023-04-25T01:52:35;9.60;99.90
45104;DHT22;30865;51.288;4.572;2023-04-25T01:55:01;9.60;99.90
45104;DHT22;30865;51.288;4.572;2023-04-25T01:57:27;9.40;99.90
45104;DHT22;30865;51.288;4.572;2023-04-25T01:59:59;9.40;99.90
45104;DHT22;30865;51.288;4.572;2023-04-25T02:02:26;9.30;99.90
45104;DHT22;30865;51.288;4.572;2023-04-25T02:04:51;9.40;99.90
45104;DHT22;30865;51.288;4.572;2023-04-25T02:07:17;9.40;99.90
45104;DHT22;30865;51.288;4.572;2023-04-25T02:09:42;9.40;99.90
45104;DHT22;30865;51.288;4.572;2023-04-25T02:12:10;9.40;99.90
45104;DHT22;30865;51.288;4.572;2023-04-25T02:14:35;9.30;99.90
45104;DHT22;30865;51.288;4.572;2023-04-25T02:17:01;9.40;99.90
45104;DHT22;30865;51.288;4.572;2023-04-25T02:19:27;9.40;99.90
45104;DHT22;30865;51.288;4.572;2023-04-25T02:21:52;9.40;99.90
45104;DHT22;30865;51.288;4.572;2023-04-25T02:24:18;9.50;99.90
45104;DHT22;30865;51.288;4.572;2023-04-25T02:26:43;9.40;99.90
45104;DHT22;30865;51.288;4.572;2023-04-25T02:29:09;9.30;99.90
45104;DHT22;30865;51.288;4.572;2023-04-25T02:31:35;9.40;99.90
45104;DHT22;30865;51.288;4.572;2023-04-25T02:34:01;9.40;99.90
45104;DHT22;30865;51.288;4.572;2023-04-25T02:36:26;9.30;99.90
45104;DHT22;30865;51.288;4.572;2023-04-25T02:38:53;9.30;99.90
45104;DHT22;30865;51.288;4.572;2023-04-25T02:41:18;9.40;99.90
45104;DHT22;30865;51.288;4.572;2023-04-25T02:43:44;9.40;99.90
45104;DHT22;30865;51.288;4.572;2023-04-25T02:46:09;9.40;99.90
45104;DHT22;30865;51.288;4.572;2023-04-25T02:48:35;9.50;99.90
45104;DHT22;30865;51.288;4.572;2023-04-25T02:51:00;9.80;99.90
45104;DHT22;30865;51.288;4.572;2023-04-25T02:53:26;9.70;99.90
45104;DHT22;30865;51.288;4.572;2023-04-25T02:55:51;9.70;99.90
45104;DHT22;30865;51.288;4.572;2023-04-25T02:58:18;9.60;99.90
45104;DHT22;30865;51.288;4.572;2023-04-25T03:00:43;9.60;99.90
45104;DHT22;30865;51.288;4.572;2023-04-25T03:03:09;9.50;99.90
45104;DHT22;30865;51.288;4.572;2023-04-25T03:05:34;9.50;99.90
45104;DHT22;30865;51.288;4.572;2023-04-25T03:08:00;9.50;99.90
45104;DHT22;30865;51.288;4.572;2023-04-25T03:10:26;9.40;99.90
45104;DHT22;30865;51.288;4.572;2023-04-25T03:12:52;9.40;99.90
45104;DHT22;30865;51.288;4.572;2023-04-25T03:15:17;9.40;99.90
45104;DHT22;30865;51.288;4.572;2023-04-25T03:17:44;9.40;99.90
45104;DHT22;30865;51.288;4.572;2023-04-25T03:20:10;9.40;99.90
45104;DHT22;30865;51.288;4.572;2023-04-25T03:22:36;9.50;99.90
45104;DHT22;30865;51.288;4.572;2023-04-25T03:25:02;9.60;99.90
45104;DHT22;30865;51.288;4.572;2023-04-25T03:27:28;9.50;99.90
45104;DHT22;30865;51.288;4.572;2023-04-25T03:29:53;9.60;99.90
45104;DHT22;30865;51.288;4.572;2023-04-25T03:32:19;9.70;99.90
45104;DHT22;30865;51.288;4.572;2023-04-25T03:34:44;9.80;99.90
45104;DHT22;30865;51.288;4.572;2023-04-25T03:37:10;9.80;99.90
45104;DHT22;30865;51.288;4.572;2023-04-25T03:39:36;9.70;99.90
45104;DHT22;30865;51.288;4.572;2023-04-25T03:42:02;9.50;99.90
45104;DHT22;30865;51.288;4.572;2023-04-25T03:44:28;9.50;99.90
45104;DHT22;30865;51.288;4.572;2023-04-25T03:46:54;9.40;99.90
45104;DHT22;30865;51.288;4.572;2023-04-25T03:49:19;9.50;99.90
45104;DHT22;30865;51.288;4.572;2023-04-25T03:51:45;9.40;99.90
45104;DHT22;30865;51.288;4.572;2023-04-25T03:54:10;9.40;99.90
45104;DHT22;30865;51.288;4.572;2023-04-25T03:56:36;9.40;99.90
45104;DHT22;30865;51.288;4.572;2023-04-25T03:59:01;9.40;99.90
45104;DHT22;30865;51.288;4.572;2023-04-25T04:01:27;9.40;99.90
45104;DHT22;30865;51.288;4.572;2023-04-25T04:03:52;9.40;99.90
45104;DHT22;30865;51.288;4.572;2023-04-25T04:06:18;9.40;99.90
45104;DHT22;30865;51.288;4.572;2023-04-25T04:08:48;9.40;99.90
45104;DHT22;30865;51.288;4.572;2023-04-25T04:11:14;9.40;99.90
45104;DHT22;30865;51.288;4.572;2023-04-25T04:13:39;9.30;99.90
45104;DHT22;30865;51.288;4.572;2023-04-25T04:16:05;9.20;99.90
45104;DHT22;30865;51.288;4.572;2023-04-25T04:18:31;9.30;99.90
45104;DHT22;30865;51.288;4.572;2023-04-25T04:20:58;9.30;99.90
45104;DHT22;30865;51.288;4.572;2023-04-25T04:23:24;9.30;99.90
45104;DHT22;30865;51.288;4.572;2023-04-25T04:25:49;9.30;99.90
45104;DHT22;30865;51.288;4.572;2023-04-25T04:28:17;9.30;99.90
45104;DHT22;30865;51.288;4.572;2023-04-25T04:30:43;9.30;99.90
45104;DHT22;30865;51.288;4.572;2023-04-25T04:33:12;9.30;99.90
45104;DHT22;30865;51.288;4.572;2023-04-25T04:35:38;9.20;99.90
45104;DHT22;30865;51.288;4.572;2023-04-25T04:38:03;9.20;99.90
45104;DHT22;30865;51.288;4.572;2023-04-25T04:40:29;9.20;99.90
45104;DHT22;30865;51.288;4.572;2023-04-25T04:42:58;9.20;99.90
45104;DHT22;30865;51.288;4.572;2023-04-25T04:45:25;9.20;99.90
45104;DHT22;30865;51.288;4.572;2023-04-25T04:47:52;9.30;99.90
45104;DHT22;30865;51.288;4.572;2023-04-25T04:50:20;9.30;99.90
45104;DHT22;30865;51.288;4.572;2023-04-25T04:52:46;9.50;99.90
45104;DHT22;30865;51.288;4.572;2023-04-25T04:55:11;9.40;99.90
45104;DHT22;30865;51.288;4.572;2023-04-25T04:57:37;9.50;99.90
45104;DHT22;30865;51.288;4.572;2023-04-25T05:00:05;9.50;99.90
45104;DHT22;30865;51.288;4.572;2023-04-25T05:02:36;9.50;99.90
45104;DHT22;30865;51.288;4.572;2023-04-25T05:05:02;9.20;99.90
45104;DHT22;30865;51.288;4.572;2023-04-25T05:07:27;9.50;99.90
45104;DHT22;30865;51.288;4.572;2023-04-25T05:09:53;9.60;99.90
45104;DHT22;30865;51.288;4.572;2023-04-25T05:12:18;9.50;99.90
45104;DHT22;30865;51.288;4.572;2023-04-25T05:14:43;9.50;99.90
45104;DHT22;30865;51.288;4.572;2023-04-25T05:17:09;9.40;99.90
45104;DHT22;30865;51.288;4.572;2023-04-25T05:19:35;9.50;99.90
45104;DHT22;30865;51.288;4.572;2023-04-25T05:22:01;9.50;99.90
45104;DHT22;30865;51.288;4.572;2023-04-25T05:24:26;9.60;99.90
45104;DHT22;30865;51.288;4.572;2023-04-25T05:26:52;9.80;99.90
45104;DHT22;30865;51.288;4.572;2023-04-25T05:29:18;9.90;99.90
45104;DHT22;30865;51.288;4.572;2023-04-25T05:31:46;10.00;99.90
45104;DHT22;30865;51.288;4.572;2023-04-25T05:34:14;10.10;99.90
45104;DHT22;30865;51.288;4.572;2023-04-25T05:36:39;10.10;99.90
45104;DHT22;30865;51.288;4.572;2023-04-25T05:39:05;10.10;99.90
45104;DHT22;30865;51.288;4.572;2023-04-25T05:41:31;10.30;99.90
45104;DHT22;30865;51.288;4.572;2023-04-25T05:43:57;10.30;99.90
45104;DHT22;30865;51.288;4.572;2023-04-25T05:46:22;10.10;99.90
45104;DHT22;30865;51.288;4.572;2023-04-25T05:48:48;10.10;99.90
45104;DHT22;30865;51.288;4.572;2023-04-25T05:51:13;10.10;99.90
45104;DHT22;30865;51.288;4.572;2023-04-25T05:53:39;10.00;99.90
45104;DHT22;30865;51.288;4.572;2023-04-25T05:56:05;9.90;99.90
45104;DHT22;30865;51.288;4.572;2023-04-25T05:58:30;9.80;99.90
45104;DHT22;30865;51.288;4.572;2023-04-25T06:00:56;9.90;99.90
45104;DHT22;30865;51.288;4.572;2023-04-25T06:03:21;9.80;99.90
45104;DHT22;30865;51.288;4.572;2023-04-25T06:05:47;9.80;99.90
45104;DHT22;30865;51.288;4.572;2023-04-25T06:08:13;9.70;99.90
45104;DHT22;30865;51.288;4.572;2023-04-25T06:10:38;9.50;99.90
45104;DHT22;30865;51.288;4.572;2023-04-25T06:13:06;9.50;99.90
45104;DHT22;30865;51.288;4.572;2023-04-25T06:15:31;9.60;99.90
45104;DHT22;30865;51.288;4.572;2023-04-25T06:18:00;9.70;99.90
45104;DHT22;30865;51.288;4.572;2023-04-25T06:20:25;9.80;99.90
45104;DHT22;30865;51.288;4.572;2023-04-25T06:22:51;9.60;99.90
45104;DHT22;30865;51.288;4.572;2023-04-25T06:25:18;9.70;99.90
45104;DHT22;30865;51.288;4.572;2023-04-25T06:27:43;9.70;99.90
45104;DHT22;30865;51.288;4.572;2023-04-25T06:30:09;9.80;99.90
45104;DHT22;30865;51.288;4.572;2023-04-25T06:32:37;9.90;99.90
45104;DHT22;30865;51.288;4.572;2023-04-25T06:35:02;10.10;99.90
45104;DHT22;30865;51.288;4.572;2023-04-25T06:37:28;10.10;99.90
45104;DHT22;30865;51.288;4.572;2023-04-25T06:39:54;10.10;99.90
45104;DHT22;30865;51.288;4.572;2023-04-25T06:42:20;10.50;99.90
45104;DHT22;30865;51.288;4.572;2023-04-25T06:44:45;10.60;99.90
45104;DHT22;30865;51.288;4.572;2023-04-25T06:47:11;10.60;99.90
45104;DHT22;30865;51.288;4.572;2023-04-25T06:49:36;10.60;99.90
45104;DHT22;30865;51.288;4.572;2023-04-25T06:52:02;10.60;99.90
45104;DHT22;30865;51.288;4.572;2023-04-25T06:54:28;10.50;99.90
45104;DHT22;30865;51.288;4.572;2023-04-25T06:56:55;10.40;99.90
45104;DHT22;30865;51.288;4.572;2023-04-25T06:59:21;10.40;99.90
45104;DHT22;30865;51.288;4.572;2023-04-25T07:01:47;10.30;99.90
45104;DHT22;30865;51.288;4.572;2023-04-25T07:04:12;10.40;99.90
45104;DHT22;30865;51.288;4.572;2023-04-25T07:06:38;10.60;99.90
45104;DHT22;30865;51.288;4.572;2023-04-25T07:09:08;10.40;99.90
45104;DHT22;30865;51.288;4.572;2023-04-25T07:11:36;10.60;99.90
45104;DHT22;30865;51.288;4.572;2023-04-25T07:14:02;10.50;99.90
45104;DHT22;30865;51.288;4.572;2023-04-25T07:16:27;10.70;99.90
45104;DHT22;30865;51.288;4.572;2023-04-25T07:18:53;10.60;99.90
45104;DHT22;30865;51.288;4.572;2023-04-25T07:21:19;10.50;99.90
45104;DHT22;30865;51.288;4.572;2023-04-25T07:23:45;10.60;99.90
45104;DHT22;30865;51.288;4.572;2023-04-25T07:26:11;10.60;99.90
45104;DHT22;30865;51.288;4.572;2023-04-25T07:28:37;10.30;99.90
45104;DHT22;30865;51.288;4.572;2023-04-25T07:31:03;10.10;99.90
45104;DHT22;30865;51.288;4.572;2023-04-25T07:33:29;9.80;99.90
45104;DHT22;30865;51.288;4.572;2023-04-25T07:35:58;9.60;99.90
45104;DHT22;30865;51.288;4.572;2023-04-25T07:38:23;9.60;99.90
45104;DHT22;30865;51.288;4.572;2023-04-25T07:40:49;9.70;99.90
45104;DHT22;30865;51.288;4.572;2023-04-25T07:43:16;9.80;99.90
45104;DHT22;30865;51.288;4.572;2023-04-25T07:45:43;9.80;99.90
45104;DHT22;30865;51.288;4.572;2023-04-25T07:48:09;9.80;99.90
45104;DHT22;30865;51.288;4.572;2023-04-25T07:50:34;9.90;99.90
45104;DHT22;30865;51.288;4.572;2023-04-25T07:53:00;10.00;99.90
45104;DHT22;30865;51.288;4.572;2023-04-25T07:55:25;10.10;99.90
45104;DHT22;30865;51.288;4.572;2023-04-25T07:57:51;9.80;99.90
45104;DHT22;30865;51.288;4.572;2023-04-25T08:00:17;9.70;99.90
45104;DHT22;30865;51.288;4.572;2023-04-25T08:02:43;9.80;99.90
45104;DHT22;30865;51.288;4.572;2023-04-25T08:05:08;9.70;99.90
45104;DHT22;30865;51.288;4.572;2023-04-25T08:07:37;9.60;99.90
45104;DHT22;30865;51.288;4.572;2023-04-25T08:10:05;9.60;99.90
45104;DHT22;30865;51.288;4.572;2023-04-25T08:12:31;9.40;99.90
45104;DHT22;30865;51.288;4.572;2023-04-25T08:14:56;9.20;99.90
45104;DHT22;30865;51.288;4.572;2023-04-25T08:17:22;9.20;99.90
45104;DHT22;30865;51.288;4.572;2023-04-25T08:19:47;9.10;99.90
45104;DHT22;30865;51.288;4.572;2023-04-25T08:22:13;9.00;99.90
45104;DHT22;30865;51.288;4.572;2023-04-25T08:24:38;9.20;99.90
45104;DHT22;30865;51.288;4.572;2023-04-25T08:27:04;9.30;99.90
45104;DHT22;30865;51.288;4.572;2023-04-25T08:29:29;9.50;99.90
45104;DHT22;30865;51.288;4.572;2023-04-25T08:31:55;9.40;99.90
45104;DHT22;30865;51.288;4.572;2023-04-25T08:34:20;9.40;99.90
45104;DHT22;30865;51.288;4.572;2023-04-25T08:36:46;9.30;99.90
45104;DHT22;30865;51.288;4.572;2023-04-25T08:39:11;9.20;99.90
45104;DHT22;30865;51.288;4.572;2023-04-25T08:41:38;9.20;99.90
45104;DHT22;30865;51.288;4.572;2023-04-25T08:44:08;9.20;99.90
45104;DHT22;30865;51.288;4.572;2023-04-25T08:46:35;9.20;99.90
45104;DHT22;30865;51.288;4.572;2023-04-25T08:49:02;9.20;99.90
45104;DHT22;30865;51.288;4.572;2023-04-25T08:51:32;9.20;99.90
45104;DHT22;30865;51.288;4.572;2023-04-25T08:54:19;9.10;99.90
45104;DHT22;30865;51.288;4.572;2023-04-25T08:56:48;9.30;99.90
45104;DHT22;30865;51.288;4.572;2023-04-25T08:59:14;9.30;99.90
45104;DHT22;30865;51.288;4.572;2023-04-25T09:01:40;9.20;99.90
45104;DHT22;30865;51.288;4.572;2023-04-25T09:04:06;9.20;99.90
45104;DHT22;30865;51.288;4.572;2023-04-25T09:06:32;9.10;99.90
45104;DHT22;30865;51.288;4.572;2023-04-25T09:09:06;8.80;99.90
45104;DHT22;30865;51.288;4.572;2023-04-25T09:11:32;8.90;99.90
45104;DHT22;30865;51.288;4.572;2023-04-25T09:14:15;8.90;99.90
45104;DHT22;30865;51.288;4.572;2023-04-25T09:19:29;8.90;99.90
45104;DHT22;30865;51.288;4.572;2023-04-25T09:22:01;8.80;99.90
45104;DHT22;30865;51.288;4.572;2023-04-25T09:24:33;8.70;99.90
45104;DHT22;30865;51.288;4.572;2023-04-25T09:26:59;8.70;99.90
45104;DHT22;30865;51.288;4.572;2023-04-25T09:29:34;8.60;99.90
45104;DHT22;30865;51.288;4.572;2023-04-25T09:32:27;8.60;99.90
45104;DHT22;30865;51.288;4.572;2023-04-25T09:34:55;8.70;99.90
45104;DHT22;30865;51.288;4.572;2023-04-25T09:37:28;8.60;99.90
45104;DHT22;30865;51.288;4.572;2023-04-25T09:39:56;8.50;99.90
45104;DHT22;30865;51.288;4.572;2023-04-25T09:42:25;8.70;99.90
45104;DHT22;30865;51.288;4.572;2023-04-25T09:44:55;8.50;99.90
45104;DHT22;30865;51.288;4.572;2023-04-25T09:47:23;8.50;99.90
45104;DHT22;30865;51.288;4.572;2023-04-25T09:49:50;8.60;99.90
45104;DHT22;30865;51.288;4.572;2023-04-25T09:52:17;8.60;99.90
45104;DHT22;30865;51.288;4.572;2023-04-25T09:54:47;8.70;99.90
45104;DHT22;30865;51.288;4.572;2023-04-25T09:57:14;8.80;99.90
45104;DHT22;30865;51.288;4.572;2023-04-25T09:59:44;8.50;99.90
45104;DHT22;30865;51.288;4.572;2023-04-25T10:02:11;8.40;99.90
45104;DHT22;30865;51.288;4.572;2023-04-25T10:04:38;8.70;99.90
45104;DHT22;30865;51.288;4.572;2023-04-25T10:07:06;8.80;99.90
45104;DHT22;30865;51.288;4.572;2023-04-25T10:09:33;8.80;99.90
45104;DHT22;30865;51.288;4.572;2023-04-25T10:12:02;8.80;99.90
45104;DHT22;30865;51.288;4.572;2023-04-25T10:14:30;8.90;99.90
45104;DHT22;30865;51.288;4.572;2023-04-25T10:16:57;8.90;99.90
45104;DHT22;30865;51.288;4.572;2023-04-25T10:19:24;8.70;99.90
45104;DHT22;30865;51.288;4.572;2023-04-25T10:22:07;8.60;99.90
45104;DHT22;30865;51.288;4.572;2023-04-25T10:24:35;8.60;99.90
45104;DHT22;30865;51.288;4.572;2023-04-25T10:27:01;8.30;99.90
45104;DHT22;30865;51.288;4.572;2023-04-25T10:29:27;8.20;99.90
45104;DHT22;30865;51.288;4.572;2023-04-25T10:31:53;8.20;99.90
45104;DHT22;30865;51.288;4.572;2023-04-25T10:34:19;8.30;99.90
45104;DHT22;30865;51.288;4.572;2023-04-25T10:36:53;8.40;99.90
45104;DHT22;30865;51.288;4.572;2023-04-25T10:39:24;8.20;99.90
45104;DHT22;30865;51.288;4.572;2023-04-25T10:41:58;8.10;99.90
45104;DHT22;30865;51.288;4.572;2023-04-25T10:44:30;8.10;99.90
45104;DHT22;30865;51.288;4.572;2023-04-25T10:46:57;8.20;99.90
45104;DHT22;30865;51.288;4.572;2023-04-25T10:49:30;8.20;99.90
45104;DHT22;30865;51.288;4.572;2023-04-25T10:52:26;8.10;99.90
45104;DHT22;30865;51.288;4.572;2023-04-25T10:54:54;8.20;99.90
45104;DHT22;30865;51.288;4.572;2023-04-25T10:57:27;8.30;99.90
45104;DHT22;30865;51.288;4.572;2023-04-25T11:02:32;8.40;99.90
45104;DHT22;30865;51.288;4.572;2023-04-25T11:05:02;8.40;99.90
45104;DHT22;30865;51.288;4.572;2023-04-25T11:09:56;8.00;99.90
45104;DHT22;30865;51.288;4.572;2023-04-25T11:12:24;8.10;99.90
45104;DHT22;30865;51.288;4.572;2023-04-25T11:14:50;8.20;99.90
45104;DHT22;30865;51.288;4.572;2023-04-25T11:17:15;8.10;99.90
45104;DHT22;30865;51.288;4.572;2023-04-25T11:19:41;8.20;99.90
45104;DHT22;30865;51.288;4.572;2023-04-25T11:22:06;8.20;99.90
45104;DHT22;30865;51.288;4.572;2023-04-25T11:24:34;8.50;99.90
45104;DHT22;30865;51.288;4.572;2023-04-25T11:27:01;8.40;99.90
45104;DHT22;30865;51.288;4.572;2023-04-25T11:29:34;8.20;99.90
45104;DHT22;30865;51.288;4.572;2023-04-25T11:32:00;8.20;99.90
45104;DHT22;30865;51.288;4.572;2023-04-25T11:34:27;8.40;99.90
45104;DHT22;30865;51.288;4.572;2023-04-25T11:36:55;8.60;99.90
45104;DHT22;30865;51.288;4.572;2023-04-25T11:39:21;8.50;99.90
45104;DHT22;30865;51.288;4.572;2023-04-25T11:41:47;8.20;99.90
45104;DHT22;30865;51.288;4.572;2023-04-25T11:44:16;7.90;99.90
45104;DHT22;30865;51.288;4.572;2023-04-25T11:46:42;8.10;99.90
45104;DHT22;30865;51.288;4.572;2023-04-25T11:49:08;8.30;99.90
45104;DHT22;30865;51.288;4.572;2023-04-25T11:51:53;8.30;99.90
45104;DHT22;30865;51.288;4.572;2023-04-25T11:54:19;8.50;99.90
45104;DHT22;30865;51.288;4.572;2023-04-25T11:56:45;8.60;99.90
45104;DHT22;30865;51.288;4.572;2023-04-25T11:59:11;8.90;99.90
45104;DHT22;30865;51.288;4.572;2023-04-25T12:01:39;9.00;99.90
45104;DHT22;30865;51.288;4.572;2023-04-25T12:04:12;9.10;99.90
45104;DHT22;30865;51.288;4.572;2023-04-25T12:06:38;8.90;99.90
45104;DHT22;30865;51.288;4.572;2023-04-25T12:09:16;9.30;99.90
45104;DHT22;30865;51.288;4.572;2023-04-25T12:11:44;8.80;99.90
45104;DHT22;30865;51.288;4.572;2023-04-25T12:14:20;8.80;99.90
45104;DHT22;30865;51.288;4.572;2023-04-25T12:16:47;8.70;99.90
45104;DHT22;30865;51.288;4.572;2023-04-25T12:19:15;8.90;99.90
45104;DHT22;30865;51.288;4.572;2023-04-25T12:21:41;9.20;99.90
45104;DHT22;30865;51.288;4.572;2023-04-25T12:24:14;9.30;99.90
45104;DHT22;30865;51.288;4.572;2023-04-25T12:26:53;9.10;99.90
45104;DHT22;30865;51.288;4.572;2023-04-25T12:29:23;8.80;99.90
45104;DHT22;30865;51.288;4.572;2023-04-25T12:31:51;9.20;99.90
45104;DHT22;30865;51.288;4.572;2023-04-25T12:34:17;9.10;99.90
45104;DHT22;30865;51.288;4.572;2023-04-25T12:36:43;9.10;99.90
45104;DHT22;30865;51.288;4.572;2023-04-25T12:39:24;9.10;99.90
45104;DHT22;30865;51.288;4.572;2023-04-25T12:41:52;9.00;99.90
45104;DHT22;30865;51.288;4.572;2023-04-25T12:44:20;8.80;99.90
45104;DHT22;30865;51.288;4.572;2023-04-25T12:46:45;8.50;99.90
45104;DHT22;30865;51.288;4.572;2023-04-25T12:49:11;8.40;99.90
45104;DHT22;30865;51.288;4.572;2023-04-25T12:51:37;8.40;99.90
45104;DHT22;30865;51.288;4.572;2023-04-25T12:54:05;8.50;99.90
45104;DHT22;30865;51.288;4.572;2023-04-25T12:56:31;8.40;99.90
45104;DHT22;30865;51.288;4.572;2023-04-25T12:58:57;8.40;99.90
45104;DHT22;30865;51.288;4.572;2023-04-25T13:01:23;8.40;99.90
45104;DHT22;30865;51.288;4.572;2023-04-25T13:03:49;8.60;99.90
45104;DHT22;30865;51.288;4.572;2023-04-25T13:06:16;8.80;99.90
45104;DHT22;30865;51.288;4.572;2023-04-25T13:08:42;8.80;99.90
45104;DHT22;30865;51.288;4.572;2023-04-25T13:11:08;9.10;99.90
45104;DHT22;30865;51.288;4.572;2023-04-25T13:13:34;9.30;99.90
45104;DHT22;30865;51.288;4.572;2023-04-25T13:16:03;9.50;99.90
45104;DHT22;30865;51.288;4.572;2023-04-25T13:18:30;9.90;99.90
45104;DHT22;30865;51.288;4.572;2023-04-25T13:20:55;10.10;99.90
45104;DHT22;30865;51.288;4.572;2023-04-25T13:23:21;10.10;99.90
45104;DHT22;30865;51.288;4.572;2023-04-25T13:25:47;10.10;99.90
45104;DHT22;30865;51.288;4.572;2023-04-25T13:28:13;10.00;99.90
45104;DHT22;30865;51.288;4.572;2023-04-25T13:30:40;9.90;99.90
45104;DHT22;30865;51.288;4.572;2023-04-25T13:33:05;10.00;99.90
45104;DHT22;30865;51.288;4.572;2023-04-25T13:35:32;10.30;99.90
45104;DHT22;30865;51.288;4.572;2023-04-25T13:37:58;9.60;99.90
45104;DHT22;30865;51.288;4.572;2023-04-25T13:40:23;9.70;99.90
45104;DHT22;30865;51.288;4.572;2023-04-25T13:42:48;9.80;99.90
45104;DHT22;30865;51.288;4.572;2023-04-25T13:45:17;9.90;99.90
45104;DHT22;30865;51.288;4.572;2023-04-25T13:47:43;10.10;99.90
45104;DHT22;30865;51.288;4.572;2023-04-25T13:50:09;10.00;99.90
45104;DHT22;30865;51.288;4.572;2023-04-25T13:52:35;9.90;99.90
45104;DHT22;30865;51.288;4.572;2023-04-25T13:55:00;10.10;99.90
45104;DHT22;30865;51.288;4.572;2023-04-25T13:57:28;10.10;99.90
45104;DHT22;30865;51.288;4.572;2023-04-25T13:59:54;10.10;99.90
45104;DHT22;30865;51.288;4.572;2023-04-25T14:02:19;10.20;99.90
45104;DHT22;30865;51.288;4.572;2023-04-25T14:04:45;9.80;99.90
45104;DHT22;30865;51.288;4.572;2023-04-25T14:07:10;10.00;99.90
45104;DHT22;30865;51.288;4.572;2023-04-25T14:09:37;10.40;99.90
45104;DHT22;30865;51.288;4.572;2023-04-25T14:12:02;10.10;99.90
45104;DHT22;30865;51.288;4.572;2023-04-25T14:14:28;10.10;99.90
45104;DHT22;30865;51.288;4.572;2023-04-25T14:16:53;10.30;99.90
45104;DHT22;30865;51.288;4.572;2023-04-25T14:19:20;10.70;99.90
45104;DHT22;30865;51.288;4.572;2023-04-25T14:21:46;10.60;99.90
45104;DHT22;30865;51.288;4.572;2023-04-25T14:24:13;10.40;99.90
45104;DHT22;30865;51.288;4.572;2023-04-25T14:26:38;9.90;99.90
45104;DHT22;30865;51.288;4.572;2023-04-25T14:29:05;9.90;99.90
45104;DHT22;30865;51.288;4.572;2023-04-25T14:31:32;10.00;99.90
45104;DHT22;30865;51.288;4.572;2023-04-25T14:33:57;10.40;99.90
45104;DHT22;30865;51.288;4.572;2023-04-25T14:36:23;10.80;99.90
45104;DHT22;30865;51.288;4.572;2023-04-25T14:38:48;10.80;99.90
45104;DHT22;30865;51.288;4.572;2023-04-25T14:41:14;10.80;99.90
45104;DHT22;30865;51.288;4.572;2023-04-25T14:43:42;10.90;99.90
45104;DHT22;30865;51.288;4.572;2023-04-25T14:46:08;12.20;99.90
45104;DHT22;30865;51.288;4.572;2023-04-25T14:48:34;12.70;99.90
45104;DHT22;30865;51.288;4.572;2023-04-25T14:51:00;12.20;99.90
45104;DHT22;30865;51.288;4.572;2023-04-25T14:53:26;11.80;99.90
45104;DHT22;30865;51.288;4.572;2023-04-25T14:55:52;11.30;99.90
45104;DHT22;30865;51.288;4.572;2023-04-25T14:58:18;11.40;99.90
45104;DHT22;30865;51.288;4.572;2023-04-25T15:00:43;11.50;99.90
45104;DHT22;30865;51.288;4.572;2023-04-25T15:03:09;11.20;99.90
45104;DHT22;30865;51.288;4.572;2023-04-25T15:05:38;11.20;99.90
45104;DHT22;30865;51.288;4.572;2023-04-25T15:08:04;11.00;99.90
45104;DHT22;30865;51.288;4.572;2023-04-25T15:10:29;11.30;99.90
45104;DHT22;30865;51.288;4.572;2023-04-25T15:12:55;11.60;99.90
45104;DHT22;30865;51.288;4.572;2023-04-25T15:15:20;12.00;99.90
45104;DHT22;30865;51.288;4.572;2023-04-25T15:17:47;12.00;99.90
45104;DHT22;30865;51.288;4.572;2023-04-25T15:20:13;11.60;99.90
45104;DHT22;30865;51.288;4.572;2023-04-25T15:22:40;11.50;99.90
45104;DHT22;30865;51.288;4.572;2023-04-25T15:25:07;11.40;99.90
45104;DHT22;30865;51.288;4.572;2023-04-25T15:27:34;11.30;99.90
45104;DHT22;30865;51.288;4.572;2023-04-25T15:30:06;11.20;99.90
45104;DHT22;30865;51.288;4.572;2023-04-25T15:32:33;11.10;99.90
45104;DHT22;30865;51.288;4.572;2023-04-25T15:34:58;11.10;99.90
45104;DHT22;30865;51.288;4.572;2023-04-25T15:37:24;11.30;99.90
45104;DHT22;30865;51.288;4.572;2023-04-25T15:40:01;12.20;99.90
45104;DHT22;30865;51.288;4.572;2023-04-25T15:42:26;13.00;99.90
45104;DHT22;30865;51.288;4.572;2023-04-25T15:44:52;13.50;99.90
45104;DHT22;30865;51.288;4.572;2023-04-25T15:47:17;13.80;99.90